Hlavní strana
METAR-TAF:

METAR-TAF

Letiště :

Néma, Mauritánie

zeměpisná šířka: 16-37-19N, zeměpisná délka: 007-18-59W, výška: 231 m

Aktuální stav počasí

Zpráva byla vytvořena před 14 hodinami a 7 minutami, v 15:00 UTC
Východní vítr 8 kt
Teplota 34°C
Vlhkost vzduchu 8%
Tlak 1013 hPa
Viditelnost 10 km a více
Žádná oblačnost pod 1500 m, nevyskytují se cumulonimby.

METAR: GQNI 151500Z 08008KT CAVOK 34/M05 Q1013

Čas: 05:07 (05:07 UTC)


TAF: chybějící

Stav a předpovědi počasí z více než 4 000 letišť (zprávy METAR a TAF).

Červené a žluté tečky na mapě představují dostupné meteorologické stanice.

Když kurzor umístíte na tečku, zobrazí se název stanice.

Pak kliknutím zobrazíte stav a předpověď počasí.

Chcete-li změnit mapu, kliknutím na zelené tlačítko se znaménkem +mapu přiblížíte, kliknutím na zelené tlačítko se znaménkem – mapu oddálíte a kliknutím na zelené šipky přejdete na sousední mapy.


METAR-TAF: